Time;durP1;ratioP1;P1;durP2;ratioP2;P2;SDS_P1;SDS_P2;PMS_P1;PMS_P2;Temp;Humidity;BMP_temperature;BMP_pressure;BME280_temperature;BME280_humidity;BME280_pressure;Samples;Min_cycle;Max_cycle;Signal;HPM_P1;HPM_P2
2020/12/01 00:01:32;;;;;;;42.60;38.40;;;;;;;;;;5074898;28;20558;-83
2020/12/01 00:03:59;;;;;;;37.60;34.17;;;;;;;;;;5074430;28;20205;-83
2020/12/01 00:06:26;;;;;;;38.70;34.63;;;;;;;;;;5074766;28;20189;-84
2020/12/01 00:08:53;;;;;;;36.13;32.72;;;;;;;;;;5074707;28;20215;-84
2020/12/01 00:11:20;;;;;;;34.28;31.13;;;;;;;;;;5074843;28;20188;-84
2020/12/01 00:13:47;;;;;;;39.70;35.95;;;;;;;;;;5074907;28;20271;-84
2020/12/01 00:16:14;;;;;;;37.45;33.92;;;;;;;;;;5056899;28;20192;-83
2020/12/01 00:18:41;;;;;;;38.00;34.70;;;;;;;;;;5074585;28;20235;-84
2020/12/01 00:21:11;;;;;;;37.95;34.63;;;;;;;;;;5074701;28;20197;-83
2020/12/01 00:23:38;;;;;;;39.35;35.22;;;;;;;;;;5056309;28;20259;-85
2020/12/01 00:26:05;;;;;;;44.08;38.00;;;;;;;;;;5074134;28;20637;-83
2020/12/01 00:28:32;;;;;;;38.92;34.83;;;;;;;;;;5074438;28;20226;-84
2020/12/01 00:30:59;;;;;;;37.90;34.10;;;;;;;;;;5074388;28;20236;-83
2020/12/01 00:33:26;;;;;;;39.10;35.13;;;;;;;;;;5074520;28;20211;-83
2020/12/01 00:35:53;;;;;;;37.03;33.60;;;;;;;;;;5074429;28;20308;-83
2020/12/01 00:38:21;;;;;;;40.05;35.92;;;;;;;;;;5074431;28;20192;-83
2020/12/01 00:40:48;;;;;;;39.83;36.00;;;;;;;;;;5074160;28;20626;-84
2020/12/01 00:43:15;;;;;;;38.53;35.00;;;;;;;;;;5077452;28;20198;-83
2020/12/01 00:45:44;;;;;;;40.28;36.45;;;;;;;;;;5078449;28;20197;-84
2020/12/01 00:48:11;;;;;;;39.42;35.30;;;;;;;;;;5078023;28;20215;-83
2020/12/01 00:50:38;;;;;;;40.17;36.35;;;;;;;;;;5078805;28;20658;-84
2020/12/01 00:53:05;;;;;;;41.63;37.13;;;;;;;;;;5078128;28;20245;-83
2020/12/01 00:55:33;;;;;;;37.60;34.25;;;;;;;;;;5077765;28;20224;-84
2020/12/01 00:58:00;;;;;;;39.80;35.33;;;;;;;;;;5078026;28;20243;-84
2020/12/01 01:00:28;;;;;;;35.83;32.63;;;;;;;;;;5078243;28;20626;-84
2020/12/01 01:02:55;;;;;;;36.25;33.05;;;;;;;;;;5078196;28;20192;-83
2020/12/01 01:05:22;;;;;;;36.63;33.42;;;;;;;;;;5077891;28;20245;-83
2020/12/01 01:07:49;;;;;;;35.28;32.15;;;;;;;;;;5077588;28;20680;-84
2020/12/01 01:10:17;;;;;;;36.42;33.13;;;;;;;;;;5078010;28;20192;-84
2020/12/01 01:12:45;;;;;;;36.30;33.00;;;;;;;;;;5077909;28;20198;-83
2020/12/01 01:15:12;;;;;;;41.25;37.08;;;;;;;;;;5077364;28;20209;-83
2020/12/01 01:17:39;;;;;;;36.65;33.22;;;;;;;;;;5077473;28;20227;-84
2020/12/01 01:20:06;;;;;;;39.00;34.88;;;;;;;;;;5059969;28;20274;-84
2020/12/01 01:22:33;;;;;;;37.97;34.50;;;;;;;;;;5078007;28;20184;-83
2020/12/01 01:25:00;;;;;;;36.83;33.40;;;;;;;;;;5077432;28;20550;-84
2020/12/01 01:27:27;;;;;;;39.85;35.80;;;;;;;;;;5077311;28;20231;-83
2020/12/01 01:29:55;;;;;;;39.20;35.65;;;;;;;;;;5077524;28;20186;-82
2020/12/01 01:32:22;;;;;;;36.20;33.00;;;;;;;;;;5077159;28;20724;-83
2020/12/01 01:34:48;;;;;;;37.92;34.15;;;;;;;;;;5077598;28;20192;-84
2020/12/01 01:37:15;;;;;;;38.33;34.83;;;;;;;;;;5077212;28;20201;-83
2020/12/01 01:39:42;;;;;;;36.15;32.92;;;;;;;;;;5059561;28;20714;-83
2020/12/01 01:42:10;;;;;;;36.95;33.25;;;;;;;;;;5077457;28;20184;-83
2020/12/01 01:44:37;;;;;;;37.95;34.30;;;;;;;;;;5077068;28;20540;-83
2020/12/01 01:47:10;;;;;;;36.13;32.83;;;;;;;;;;5077254;28;20188;-82
2020/12/01 01:49:38;;;;;;;35.97;32.80;;;;;;;;;;5077083;28;20223;-83
2020/12/01 01:52:12;;;;;;;35.03;31.90;;;;;;;;;;5077227;28;20188;-83
2020/12/01 01:54:39;;;;;;;36.08;32.58;;;;;;;;;;5057967;28;20236;-83
2020/12/01 01:57:07;;;;;;;33.05;30.25;;;;;;;;;;5076583;28;20184;-83
2020/12/01 01:59:34;;;;;;;35.90;32.45;;;;;;;;;;5076930;28;20198;-83
2020/12/01 02:02:01;;;;;;;35.10;31.88;;;;;;;;;;5076343;28;20204;-83
2020/12/01 02:04:29;;;;;;;35.03;31.90;;;;;;;;;;5076795;28;20195;-83
2020/12/01 02:06:58;;;;;;;33.90;31.10;;;;;;;;;;5076272;28;20210;-82
2020/12/01 02:09:27;;;;;;;33.17;30.55;;;;;;;;;;5076487;28;20223;-83
2020/12/01 02:11:54;;;;;;;34.25;31.40;;;;;;;;;;5076771;28;20185;-83
2020/12/01 02:14:23;;;;;;;33.55;30.83;;;;;;;;;;5076486;28;20636;-83
2020/12/01 02:16:52;;;;;;;33.13;30.42;;;;;;;;;;5076590;28;20186;-83
2020/12/01 02:19:20;;;;;;;35.47;32.45;;;;;;;;;;5076535;28;20233;-83
2020/12/01 02:21:48;;;;;;;34.45;31.25;;;;;;;;;;5058423;28;20262;-82
2020/12/01 02:24:17;;;;;;;34.13;31.08;;;;;;;;;;5076265;28;20242;-83
2020/12/01 02:26:46;;;;;;;32.78;30.15;;;;;;;;;;5076065;28;20639;-83
2020/12/01 02:29:15;;;;;;;32.92;30.33;;;;;;;;;;5076345;28;20246;-82
2020/12/01 02:31:42;;;;;;;33.38;30.55;;;;;;;;;;5076015;28;20326;-82
2020/12/01 02:34:11;;;;;;;32.47;29.80;;;;;;;;;;5076390;28;20631;-83
2020/12/01 02:36:38;;;;;;;32.75;30.23;;;;;;;;;;5076361;28;20263;-82
2020/12/01 02:39:05;;;;;;;33.72;30.83;;;;;;;;;;5076505;28;20208;-83
2020/12/01 02:41:32;;;;;;;32.75;29.90;;;;;;;;;;5076146;28;20204;-82
2020/12/01 02:44:00;;;;;;;32.08;29.40;;;;;;;;;;5076019;28;20193;-83
2020/12/01 02:46:34;;;;;;;34.00;30.88;;;;;;;;;;5075857;28;20194;-83
2020/12/01 02:49:00;;;;;;;33.45;30.65;;;;;;;;;;5076008;28;20228;-83
2020/12/01 02:51:28;;;;;;;31.90;29.30;;;;;;;;;;5075591;28;20635;-83
2020/12/01 02:53:54;;;;;;;31.75;29.05;;;;;;;;;;5075799;28;20185;-82
2020/12/01 02:56:21;;;;;;;34.42;31.02;;;;;;;;;;5075680;28;20212;-83
2020/12/01 02:58:48;;;;;;;33.10;30.50;;;;;;;;;;5076382;28;20200;-83
2020/12/01 03:01:16;;;;;;;32.05;29.55;;;;;;;;;;5075288;28;20204;-83
2020/12/01 03:03:43;;;;;;;32.30;29.70;;;;;;;;;;5075722;28;20653;-83
2020/12/01 03:06:10;;;;;;;30.25;27.75;;;;;;;;;;5075300;28;20651;-83
2020/12/01 03:08:37;;;;;;;32.50;29.92;;;;;;;;;;5075719;28;20311;-82
2020/12/01 03:11:04;;;;;;;33.10;30.17;;;;;;;;;;5075639;28;20192;-83
2020/12/01 03:13:31;;;;;;;32.42;29.92;;;;;;;;;;5075430;28;20608;-81
2020/12/01 03:16:03;;;;;;;32.65;29.98;;;;;;;;;;5075483;28;20191;-82
2020/12/01 03:18:31;;;;;;;33.17;30.33;;;;;;;;;;5075191;28;20223;-81
2020/12/01 03:20:58;;;;;;;31.52;29.02;;;;;;;;;;5075084;28;20193;-82
2020/12/01 03:23:24;;;;;;;34.55;31.65;;;;;;;;;;5075306;28;20188;-82
2020/12/01 03:25:51;;;;;;;32.65;30.05;;;;;;;;;;5075179;28;20253;-81
2020/12/01 03:28:18;;;;;;;33.35;30.75;;;;;;;;;;5057770;28;20226;-82
2020/12/01 03:30:45;;;;;;;31.27;28.85;;;;;;;;;;5075194;28;20243;-81
2020/12/01 03:33:12;;;;;;;34.35;31.40;;;;;;;;;;5075190;28;20200;-82
2020/12/01 03:35:41;;;;;;;32.97;30.08;;;;;;;;;;5057541;28;20184;-81
2020/12/01 03:38:08;;;;;;;32.47;29.80;;;;;;;;;;5075026;28;20188;-82
2020/12/01 03:40:34;;;;;;;32.78;30.17;;;;;;;;;;5074913;28;20189;-81
2020/12/01 03:43:01;;;;;;;33.33;30.50;;;;;;;;;;5075175;28;20254;-82
2020/12/01 03:45:28;;;;;;;34.50;31.48;;;;;;;;;;5074826;28;20197;-81
2020/12/01 03:47:56;;;;;;;34.33;31.25;;;;;;;;;;5074909;28;20196;-82
2020/12/01 03:50:23;;;;;;;33.30;30.38;;;;;;;;;;5074794;28;20197;-81
2020/12/01 03:52:51;;;;;;;33.80;30.73;;;;;;;;;;5074836;28;20205;-82
2020/12/01 03:55:18;;;;;;;32.35;29.70;;;;;;;;;;5074330;28;20192;-82
2020/12/01 03:57:45;;;;;;;34.13;31.42;;;;;;;;;;5074377;28;20664;-82
2020/12/01 04:00:13;;;;;;;34.15;31.55;;;;;;;;;;5056771;28;20200;-82
2020/12/01 04:02:40;;;;;;;35.53;32.63;;;;;;;;;;5056776;28;20204;-82
2020/12/01 04:05:07;;;;;;;34.80;31.75;;;;;;;;;;5074300;28;20192;-82
2020/12/01 04:07:34;;;;;;;33.60;31.10;;;;;;;;;;5074366;28;20196;-81
2020/12/01 04:10:02;;;;;;;36.75;33.25;;;;;;;;;;5074504;28;20697;-82
2020/12/01 04:12:29;;;;;;;33.40;30.85;;;;;;;;;;5074251;28;20190;-81
2020/12/01 04:14:56;;;;;;;32.80;30.10;;;;;;;;;;5074351;28;20199;-82
2020/12/01 04:17:23;;;;;;;34.38;31.55;;;;;;;;;;5073742;28;20223;-82
2020/12/01 04:19:50;;;;;;;34.55;31.73;;;;;;;;;;5074372;28;20571;-82
2020/12/01 04:22:18;;;;;;;34.42;31.42;;;;;;;;;;5074055;28;20288;-82
2020/12/01 04:24:44;;;;;;;34.45;31.33;;;;;;;;;;5074460;28;20246;-82
2020/12/01 04:27:13;;;;;;;33.63;30.73;;;;;;;;;;5074541;28;20192;-82
2020/12/01 04:29:41;;;;;;;32.25;29.85;;;;;;;;;;5074240;28;20227;-82
2020/12/01 04:32:08;;;;;;;32.10;29.55;;;;;;;;;;5073967;28;20235;-82
2020/12/01 04:34:35;;;;;;;34.63;31.33;;;;;;;;;;5056466;28;20208;-82
2020/12/01 04:37:03;;;;;;;33.70;30.92;;;;;;;;;;5073982;28;20279;-82
2020/12/01 04:39:29;;;;;;;34.72;31.88;;;;;;;;;;5074313;28;20234;-82
2020/12/01 04:41:57;;;;;;;32.65;30.17;;;;;;;;;;5074268;28;20196;-82
2020/12/01 04:44:27;;;;;;;33.85;30.65;;;;;;;;;;5074206;28;20192;-82
2020/12/01 04:46:55;;;;;;;33.67;30.70;;;;;;;;;;5073804;28;20196;-82
2020/12/01 04:49:26;;;;;;;33.22;30.52;;;;;;;;;;5073854;28;20686;-82
2020/12/01 04:52:00;;;;;;;35.83;32.22;;;;;;;;;;5056254;28;20204;-82
2020/12/01 04:54:36;;;;;;;33.17;30.30;;;;;;;;;;5055776;28;20203;-82
2020/12/01 04:57:09;;;;;;;34.08;30.80;;;;;;;;;;5074074;28;20200;-81
2020/12/01 04:59:50;;;;;;;34.65;31.63;;;;;;;;;;5073748;28;20658;-82
2020/12/01 05:02:27;;;;;;;40.13;36.30;;;;;;;;;;5057294;28;20201;-82
2020/12/01 05:05:08;;;;;;;44.05;39.95;;;;;;;;;;5073242;28;20297;-82
2020/12/01 05:07:43;;;;;;;37.10;33.75;;;;;;;;;;5073999;28;20202;-81
2020/12/01 05:10:13;;;;;;;37.28;33.83;;;;;;;;;;5073497;28;20644;-82
2020/12/01 05:12:40;;;;;;;33.70;30.90;;;;;;;;;;5073526;28;20240;-82
2020/12/01 05:15:13;;;;;;;34.97;32.00;;;;;;;;;;5073401;28;20211;-81
2020/12/01 05:17:55;;;;;;;35.45;32.50;;;;;;;;;;5073345;28;20554;-82
2020/12/01 05:20:23;;;;;;;35.50;31.85;;;;;;;;;;5073660;28;20203;-82
2020/12/01 05:22:51;;;;;;;33.15;30.45;;;;;;;;;;5073563;28;20195;-81
2020/12/01 05:25:21;;;;;;;34.55;31.58;;;;;;;;;;5073262;28;20188;-81
2020/12/01 05:27:47;;;;;;;35.75;32.47;;;;;;;;;;5073176;28;20527;-81
2020/12/01 05:30:18;;;;;;;35.83;32.30;;;;;;;;;;5076104;28;20692;-81
2020/12/01 05:32:52;;;;;;;34.22;31.45;;;;;;;;;;5076796;28;20233;-81
2020/12/01 05:35:21;;;;;;;35.30;32.00;;;;;;;;;;5076734;28;20518;-81
2020/12/01 05:37:52;;;;;;;36.50;33.10;;;;;;;;;;5076942;28;20188;-81
2020/12/01 05:40:19;;;;;;;38.13;34.53;;;;;;;;;;5077112;28;20200;-81
2020/12/01 05:42:46;;;;;;;38.63;34.92;;;;;;;;;;5076858;28;20272;-81
2020/12/01 05:45:18;;;;;;;36.13;32.75;;;;;;;;;;5059082;28;20204;-84
2020/12/01 05:47:49;;;;;;;39.15;35.25;;;;;;;;;;5058943;28;20209;-80
2020/12/01 05:50:22;;;;;;;39.03;35.63;;;;;;;;;;5059039;28;20211;-80
2020/12/01 05:52:52;;;;;;;38.85;34.97;;;;;;;;;;5076558;28;20228;-80
2020/12/01 05:55:23;;;;;;;40.40;36.65;;;;;;;;;;5076331;28;20193;-81
2020/12/01 05:58:01;;;;;;;37.72;34.45;;;;;;;;;;5076591;28;20677;-81
2020/12/01 06:00:29;;;;;;;37.05;33.50;;;;;;;;;;5076633;28;20252;-80
2020/12/01 06:03:05;;;;;;;39.38;35.35;;;;;;;;;;5076840;28;20185;-81
2020/12/01 06:05:32;;;;;;;38.42;34.95;;;;;;;;;;5076434;28;20196;-81
2020/12/01 06:08:04;;;;;;;37.20;34.10;;;;;;;;;;5076673;28;20238;-81
2020/12/01 06:10:35;;;;;;;38.75;35.17;;;;;;;;;;5076714;28;20192;-81
2020/12/01 06:13:13;;;;;;;38.63;34.78;;;;;;;;;;5058737;28;20200;-80
2020/12/01 06:15:43;;;;;;;37.78;34.13;;;;;;;;;;5076097;28;20203;-80
2020/12/01 06:18:15;;;;;;;37.33;34.00;;;;;;;;;;5075802;28;20228;-80
2020/12/01 06:20:46;;;;;;;37.55;33.85;;;;;;;;;;5075960;28;20196;-80
2020/12/01 06:23:24;;;;;;;40.63;36.85;;;;;;;;;;5058204;28;20204;-80
2020/12/01 06:26:09;;;;;;;38.53;35.10;;;;;;;;;;5075757;28;20631;-80
2020/12/01 06:28:55;;;;;;;40.08;36.35;;;;;;;;;;5075918;28;20690;-80
2020/12/01 06:31:38;;;;;;;39.63;36.03;;;;;;;;;;5075720;28;20235;-80
2020/12/01 06:34:32;;;;;;;39.72;35.38;;;;;;;;;;5075928;28;20217;-80
2020/12/01 06:37:13;;;;;;;40.40;36.60;;;;;;;;;;5075944;28;20188;-79
2020/12/01 06:39:48;;;;;;;39.55;35.60;;;;;;;;;;5058587;28;20662;-80
2020/12/01 06:42:18;;;;;;;40.47;36.40;;;;;;;;;;5075607;28;20195;-80
2020/12/01 06:44:46;;;;;;;40.67;36.58;;;;;;;;;;5075822;28;20189;-80
2020/12/01 06:47:14;;;;;;;41.08;37.05;;;;;;;;;;5075761;28;20607;-80
2020/12/01 06:49:41;;;;;;;46.97;37.58;;;;;;;;;;5074764;28;20637;-80
2020/12/01 06:52:13;;;;;;;39.13;35.28;;;;;;;;;;5075324;28;20193;-80
2020/12/01 06:54:47;;;;;;;43.10;39.03;;;;;;;;;;5075438;28;20193;-80
2020/12/01 06:57:24;;;;;;;44.40;39.88;;;;;;;;;;5075481;28;20196;-80
2020/12/01 06:59:51;;;;;;;40.13;36.47;;;;;;;;;;5075379;28;20193;-80
2020/12/01 07:02:24;;;;;;;42.92;38.63;;;;;;;;;;5057631;28;20202;-80
2020/12/01 07:04:50;;;;;;;41.10;37.25;;;;;;;;;;5075303;28;20220;-80
2020/12/01 07:07:21;;;;;;;41.70;37.50;;;;;;;;;;5075201;28;20205;-79
2020/12/01 07:09:51;;;;;;;46.58;41.25;;;;;;;;;;5057307;28;20225;-80
2020/12/01 07:12:26;;;;;;;42.50;38.15;;;;;;;;;;5075366;28;20532;-80
2020/12/01 07:14:58;;;;;;;44.67;39.08;;;;;;;;;;5074750;28;20208;-79
2020/12/01 07:17:29;;;;;;;42.63;38.47;;;;;;;;;;5074671;28;20550;-79
2020/12/01 07:19:57;;;;;;;45.78;40.40;;;;;;;;;;5074714;28;20196;-79
2020/12/01 07:22:38;;;;;;;42.10;37.65;;;;;;;;;;5075009;28;20197;-80
2020/12/01 07:25:10;;;;;;;41.80;37.70;;;;;;;;;;5050079;28;20213;-80
2020/12/01 07:27:44;;;;;;;39.92;36.17;;;;;;;;;;5074624;28;20623;-80
2020/12/01 07:30:15;;;;;;;43.40;38.05;;;;;;;;;;5057304;28;20228;-81
2020/12/01 07:32:48;;;;;;;41.85;38.00;;;;;;;;;;5074340;28;20228;-79
2020/12/01 07:35:17;;;;;;;43.65;38.92;;;;;;;;;;5074726;28;20273;-79
2020/12/01 07:37:57;;;;;;;41.25;37.40;;;;;;;;;;5074526;28;20643;-79
2020/12/01 07:40:26;;;;;;;42.55;38.00;;;;;;;;;;5056943;28;20723;-81
2020/12/01 07:42:58;;;;;;;46.25;38.47;;;;;;;;;;5057114;28;20204;-87
2020/12/01 07:45:25;;;;;;;42.20;37.90;;;;;;;;;;5075188;28;20188;-89
2020/12/01 07:47:56;;;;;;;42.42;37.92;;;;;;;;;;5075713;28;20193;-87
2020/12/01 07:50:23;;;;;;;40.42;36.63;;;;;;;;;;5075179;28;20220;-87
2020/12/01 07:52:56;;;;;;;42.80;38.40;;;;;;;;;;5056498;28;20227;-87
2020/12/01 07:55:25;;;;;;;44.33;39.35;;;;;;;;;;5074964;28;20200;-85
2020/12/01 07:57:59;;;;;;;41.20;36.97;;;;;;;;;;5074637;28;20204;-84
2020/12/01 08:00:27;;;;;;;40.63;36.72;;;;;;;;;;5075301;28;20206;-84
2020/12/01 08:03:00;;;;;;;48.10;39.60;;;;;;;;;;5074481;28;20201;-85
2020/12/01 08:05:27;;;;;;;45.05;40.20;;;;;;;;;;5074833;28;20280;-85
2020/12/01 08:07:55;;;;;;;56.83;39.53;;;;;;;;;;5074206;28;20562;-80
2020/12/01 08:10:23;;;;;;;43.35;37.58;;;;;;;;;;5074179;28;20223;-80
2020/12/01 08:12:52;;;;;;;62.38;40.90;;;;;;;;;;5074302;28;20209;-85
2020/12/01 08:15:20;;;;;;;43.92;38.33;;;;;;;;;;5074701;28;20192;-84
2020/12/01 08:17:48;;;;;;;47.50;37.13;;;;;;;;;;5074215;28;20262;-85
2020/12/01 08:20:18;;;;;;;67.45;39.45;;;;;;;;;;5073832;28;20193;-80
2020/12/01 08:22:56;;;;;;;42.10;38.00;;;;;;;;;;5073970;28;20282;-81
2020/12/01 08:25:25;;;;;;;44.15;39.10;;;;;;;;;;5072376;28;20219;-77
2020/12/01 08:27:54;;;;;;;46.72;37.97;;;;;;;;;;5073937;28;20572;-76
2020/12/01 08:30:29;;;;;;;42.97;37.97;;;;;;;;;;5073517;28;20709;-77
2020/12/01 08:33:03;;;;;;;44.90;39.47;;;;;;;;;;5073417;28;20223;-77
2020/12/01 08:35:35;;;;;;;45.85;39.78;;;;;;;;;;5073471;28;20593;-80
2020/12/01 08:38:06;;;;;;;45.60;40.10;;;;;;;;;;5074404;28;20581;-84
2020/12/01 08:40:37;;;;;;;42.97;38.53;;;;;;;;;;5074695;28;20627;-85
2020/12/01 08:43:14;;;;;;;62.78;42.50;;;;;;;;;;5074249;28;20246;-87
2020/12/01 08:45:47;;;;;;;52.13;40.45;;;;;;;;;;5073383;28;20200;-76
2020/12/01 08:48:20;;;;;;;45.92;41.03;;;;;;;;;;5073543;28;20205;-80
2020/12/01 08:50:47;;;;;;;57.42;39.88;;;;;;;;;;5073991;28;20587;-74
2020/12/01 08:53:16;;;;;;;58.60;41.47;;;;;;;;;;5073443;28;20194;-77
2020/12/01 08:55:48;;;;;;;44.78;39.63;;;;;;;;;;5073338;28;20276;-76
2020/12/01 08:58:18;;;;;;;63.38;43.08;;;;;;;;;;5054344;28;20197;-77
2020/12/01 09:00:55;;;;;;;43.92;39.25;;;;;;;;;;5072669;28;20194;-75
2020/12/01 09:03:23;;;;;;;59.15;43.13;;;;;;;;;;5072444;28;20189;-77
2020/12/01 09:05:51;;;;;;;46.42;40.03;;;;;;;;;;5077062;28;20205;-76
2020/12/01 09:11:09;;;;;;;43.53;39.17;;;;;;;;;;5074844;28;20227;-76
2020/12/01 09:13:39;;;;;;;47.92;42.67;;;;;;;;;;5076798;28;20587;-77
2020/12/01 09:16:22;;;;;;;45.42;40.40;;;;;;;;;;5077208;28;20205;-77
2020/12/01 09:24:31;;;;;;;46.05;41.05;;;;;;;;;;5034823;28;20652;-76
2020/12/01 09:27:05;;;;;;;44.78;39.92;;;;;;;;;;5034857;28;20202;-76
2020/12/01 09:29:32;;;;;;;44.47;39.35;;;;;;;;;;5034641;28;20225;-76
2020/12/01 09:32:05;;;;;;;46.63;41.80;;;;;;;;;;5034453;28;20241;-77
2020/12/01 09:34:35;;;;;;;37.95;34.58;;;;;;;;;;5032888;28;20234;-77
2020/12/01 09:37:02;;;;;;;44.85;40.25;;;;;;;;;;5032041;28;20195;-79
2020/12/01 09:39:29;;;;;;;42.90;38.78;;;;;;;;;;5033181;28;20201;-78
2020/12/01 09:42:12;;;;;;;40.28;36.65;;;;;;;;;;5033620;28;20206;-80
2020/12/01 09:45:07;;;;;;;43.33;39.08;;;;;;;;;;5034363;28;20192;-78
2020/12/01 09:47:45;;;;;;;50.83;40.03;;;;;;;;;;5034481;28;20194;-78
2020/12/01 09:50:21;;;;;;;43.05;38.75;;;;;;;;;;5034372;28;20687;-78
2020/12/01 09:53:11;;;;;;;42.15;37.60;;;;;;;;;;5034312;28;20207;-78
2020/12/01 10:09:44;;;;;;;39.95;36.08;;;;;;;;;;5076295;28;20267;-78
2020/12/01 10:12:28;;;;;;;44.10;39.88;;;;;;;;;;5076573;28;20193;-85
2020/12/01 10:32:31;;;;;;;42.15;38.25;;;;;;;;;;5075533;28;20266;-79
2020/12/01 10:35:09;;;;;;;49.53;39.08;;;;;;;;;;5076192;28;20662;-79
2020/12/01 10:37:36;;;;;;;47.45;41.08;;;;;;;;;;5076822;28;20190;-79
2020/12/01 10:40:05;;;;;;;41.60;37.15;;;;;;;;;;5058075;28;20231;-79
2020/12/01 10:42:32;;;;;;;47.00;40.67;;;;;;;;;;5075848;28;20201;-79
2020/12/01 10:44:59;;;;;;;44.58;39.88;;;;;;;;;;5075370;28;20636;-79
2020/12/01 10:47:25;;;;;;;43.20;38.65;;;;;;;;;;5075532;28;20194;-79
2020/12/01 10:49:52;;;;;;;50.65;42.80;;;;;;;;;;5075295;28;20227;-79
2020/12/01 10:52:20;;;;;;;43.58;38.65;;;;;;;;;;5075548;28;20628;-79
2020/12/01 10:54:47;;;;;;;44.15;39.40;;;;;;;;;;5075038;28;20637;-79
2020/12/01 10:57:15;;;;;;;43.47;38.45;;;;;;;;;;5075655;28;20200;-79
2020/12/01 10:59:43;;;;;;;43.80;39.53;;;;;;;;;;5075567;28;20188;-78
2020/12/01 11:02:09;;;;;;;40.47;37.00;;;;;;;;;;5074070;28;20220;-79
2020/12/01 11:04:36;;;;;;;41.25;37.30;;;;;;;;;;5074938;28;20200;-79
2020/12/01 11:07:03;;;;;;;43.03;38.72;;;;;;;;;;5074694;28;20667;-80
2020/12/01 11:09:30;;;;;;;41.25;37.20;;;;;;;;;;5056517;28;20220;-80
2020/12/01 11:11:57;;;;;;;91.25;43.10;;;;;;;;;;5075062;28;20541;-79
2020/12/01 11:14:25;;;;;;;42.03;37.58;;;;;;;;;;5075056;28;20563;-79
2020/12/01 11:16:51;;;;;;;46.83;39.97;;;;;;;;;;5074984;28;20189;-78
2020/12/01 11:19:18;;;;;;;43.47;38.25;;;;;;;;;;5074600;28;20572;-78
2020/12/01 11:21:45;;;;;;;43.60;39.10;;;;;;;;;;5075413;28;20188;-78
2020/12/01 11:24:12;;;;;;;48.15;40.55;;;;;;;;;;5074413;28;20200;-78
2020/12/01 11:26:39;;;;;;;46.75;38.70;;;;;;;;;;5056885;28;20200;-78
2020/12/01 11:29:06;;;;;;;44.33;39.65;;;;;;;;;;5074623;28;20221;-77
2020/12/01 11:31:35;;;;;;;40.85;36.55;;;;;;;;;;5074415;28;20233;-77
2020/12/01 11:34:04;;;;;;;72.35;43.83;;;;;;;;;;5074710;28;20273;-77
2020/12/01 11:36:31;;;;;;;49.42;41.00;;;;;;;;;;5074542;28;20197;-78
2020/12/01 11:38:58;;;;;;;43.33;38.58;;;;;;;;;;5074346;28;20223;-77
2020/12/01 11:41:25;;;;;;;43.15;37.85;;;;;;;;;;5074601;28;20279;-78
2020/12/01 11:43:52;;;;;;;50.15;40.45;;;;;;;;;;5074489;28;20201;-78
2020/12/01 11:46:19;;;;;;;62.08;41.33;;;;;;;;;;5074220;28;20204;-78
2020/12/01 11:48:47;;;;;;;49.15;43.58;;;;;;;;;;5074209;28;20634;-78
2020/12/01 11:51:14;;;;;;;52.28;41.88;;;;;;;;;;5073945;28;20197;-78
2020/12/01 11:53:41;;;;;;;41.67;37.50;;;;;;;;;;5073939;28;20198;-79
2020/12/01 11:56:09;;;;;;;45.78;39.60;;;;;;;;;;5074084;28;20609;-79
2020/12/01 11:58:36;;;;;;;42.75;38.75;;;;;;;;;;5074493;28;20215;-79
2020/12/01 12:01:03;;;;;;;42.75;38.10;;;;;;;;;;5074444;28;20192;-78
2020/12/01 12:03:29;;;;;;;43.53;37.95;;;;;;;;;;5074242;28;20185;-78
2020/12/01 12:05:57;;;;;;;51.83;43.28;;;;;;;;;;5056253;28;20785;-79
2020/12/01 12:08:24;;;;;;;47.10;40.75;;;;;;;;;;5073944;28;20662;-80
2020/12/01 12:10:51;;;;;;;46.10;41.35;;;;;;;;;;5074076;28;20660;-78
2020/12/01 12:13:18;;;;;;;44.35;39.88;;;;;;;;;;5075049;28;20200;-79
2020/12/01 12:15:45;;;;;;;52.58;38.72;;;;;;;;;;5074118;28;20189;-79
2020/12/01 12:18:12;;;;;;;59.25;44.28;;;;;;;;;;5073729;28;20223;-79
2020/12/01 12:20:39;;;;;;;49.60;40.53;;;;;;;;;;5073862;28;20201;-79
2020/12/01 12:23:06;;;;;;;42.38;38.17;;;;;;;;;;5073519;28;20190;-79
2020/12/01 12:25:33;;;;;;;45.47;40.65;;;;;;;;;;5074064;28;20200;-78
2020/12/01 12:28:00;;;;;;;44.60;40.15;;;;;;;;;;5073695;28;20196;-79
2020/12/01 12:30:27;;;;;;;41.95;37.75;;;;;;;;;;5073770;28;20211;-79
2020/12/01 12:32:54;;;;;;;42.45;38.40;;;;;;;;;;5073478;28;20258;-79
2020/12/01 12:35:21;;;;;;;39.47;35.58;;;;;;;;;;5073563;28;20632;-79
2020/12/01 12:37:48;;;;;;;40.28;36.45;;;;;;;;;;5073287;28;20193;-79
2020/12/01 12:40:16;;;;;;;41.42;37.33;;;;;;;;;;5073520;28;20202;-79
2020/12/01 12:42:42;;;;;;;54.58;41.65;;;;;;;;;;5073607;28;20631;-79
2020/12/01 12:45:10;;;;;;;42.65;38.55;;;;;;;;;;5074002;28;20197;-79
2020/12/01 12:47:37;;;;;;;43.20;38.75;;;;;;;;;;5056028;28;20188;-81
2020/12/01 12:50:04;;;;;;;43.10;38.00;;;;;;;;;;5054399;28;20231;-77
2020/12/01 12:52:31;;;;;;;44.30;39.55;;;;;;;;;;5073696;28;20192;-76
2020/12/01 12:54:57;;;;;;;43.72;39.38;;;;;;;;;;5073615;28;20184;-80
2020/12/01 12:57:25;;;;;;;49.90;39.65;;;;;;;;;;5073727;28;20198;-80
2020/12/01 12:59:52;;;;;;;45.45;38.03;;;;;;;;;;5073659;28;20191;-79
2020/12/01 13:02:19;;;;;;;42.17;37.85;;;;;;;;;;5073379;28;20204;-80
2020/12/01 13:04:46;;;;;;;41.47;37.20;;;;;;;;;;5072103;28;20202;-80
2020/12/01 13:07:13;;;;;;;51.75;41.22;;;;;;;;;;5072031;28;20195;-80
2020/12/01 13:09:40;;;;;;;39.63;35.70;;;;;;;;;;5053997;28;20276;-78
2020/12/01 13:12:07;;;;;;;47.67;39.08;;;;;;;;;;5071338;28;20973;-79
2020/12/01 13:14:34;;;;;;;43.03;38.55;;;;;;;;;;5071737;28;20199;-78
2020/12/01 13:17:01;;;;;;;43.10;38.45;;;;;;;;;;5072420;28;20214;-80
2020/12/01 13:19:28;;;;;;;56.67;42.13;;;;;;;;;;5073452;28;20203;-79
2020/12/01 13:21:55;;;;;;;48.42;38.45;;;;;;;;;;5073272;28;20191;-81
2020/12/01 13:24:22;;;;;;;45.40;40.70;;;;;;;;;;5073514;28;20198;-78
2020/12/01 13:26:51;;;;;;;42.22;37.30;;;;;;;;;;5055779;28;20191;-84
2020/12/01 13:29:18;;;;;;;42.08;37.50;;;;;;;;;;5073353;28;20237;-82
2020/12/01 13:31:48;;;;;;;88.82;44.83;;;;;;;;;;5073149;28;20227;-78
2020/12/01 13:34:15;;;;;;;51.83;39.35;;;;;;;;;;5073325;28;20202;-79
2020/12/01 13:36:42;;;;;;;43.85;39.30;;;;;;;;;;5055326;28;20678;-81
2020/12/01 13:39:09;;;;;;;43.28;38.67;;;;;;;;;;5055530;28;20204;-80
2020/12/01 13:41:37;;;;;;;45.53;38.45;;;;;;;;;;5073347;28;20591;-79
2020/12/01 13:44:04;;;;;;;44.83;39.40;;;;;;;;;;5055064;28;20209;-79
2020/12/01 13:46:31;;;;;;;40.60;36.33;;;;;;;;;;5073286;28;20199;-79
2020/12/01 13:48:59;;;;;;;47.30;39.33;;;;;;;;;;5072912;28;20553;-78
2020/12/01 13:51:26;;;;;;;42.67;38.33;;;;;;;;;;5075963;28;20192;-79
2020/12/01 13:53:53;;;;;;;42.75;38.25;;;;;;;;;;5076494;28;20197;-78
2020/12/01 13:56:19;;;;;;;43.60;38.92;;;;;;;;;;5076456;28;20210;-80
2020/12/01 13:58:46;;;;;;;52.55;39.15;;;;;;;;;;5076684;28;20581;-78
2020/12/01 14:01:13;;;;;;;42.50;38.28;;;;;;;;;;5076175;28;20656;-79
2020/12/01 14:03:40;;;;;;;43.90;39.10;;;;;;;;;;5076007;28;20201;-75
2020/12/01 14:06:08;;;;;;;42.67;37.88;;;;;;;;;;5076386;28;20187;-85
2020/12/01 14:08:34;;;;;;;40.20;35.95;;;;;;;;;;5076913;28;20244;-81
2020/12/01 14:11:01;;;;;;;41.33;37.00;;;;;;;;;;5076711;28;20572;-81
2020/12/01 14:13:28;;;;;;;39.20;35.25;;;;;;;;;;5076195;28;20220;-81
2020/12/01 14:15:55;;;;;;;35.92;32.83;;;;;;;;;;5058696;28;20207;-77
2020/12/01 14:18:22;;;;;;;38.20;34.80;;;;;;;;;;5076620;28;20223;-81
2020/12/01 14:20:49;;;;;;;37.45;33.95;;;;;;;;;;5058820;28;20714;-83
2020/12/01 14:23:17;;;;;;;38.90;35.28;;;;;;;;;;5076084;28;20216;-82
2020/12/01 14:25:44;;;;;;;38.85;35.10;;;;;;;;;;5076139;28;20184;-80
2020/12/01 14:28:10;;;;;;;62.75;38.20;;;;;;;;;;5076148;28;20252;-85
2020/12/01 14:30:37;;;;;;;39.20;35.40;;;;;;;;;;5058237;28;20707;-79
2020/12/01 14:33:04;;;;;;;38.72;34.88;;;;;;;;;;5075633;28;20504;-84
2020/12/01 14:35:31;;;;;;;37.63;34.15;;;;;;;;;;5076270;28;20252;-85
2020/12/01 14:37:58;;;;;;;38.15;34.38;;;;;;;;;;5076077;28;20246;-74
2020/12/01 14:40:26;;;;;;;37.70;34.15;;;;;;;;;;5075935;28;20194;-79
2020/12/01 14:42:55;;;;;;;39.20;35.08;;;;;;;;;;5075892;28;20265;-79
2020/12/01 14:45:21;;;;;;;42.90;38.60;;;;;;;;;;5075721;28;20191;-80
2020/12/01 14:48:06;;;;;;;40.60;36.60;;;;;;;;;;5075776;28;20213;-80
2020/12/01 14:50:50;;;;;;;42.00;38.05;;;;;;;;;;5075644;28;20215;-80
2020/12/01 14:53:19;;;;;;;47.30;40.95;;;;;;;;;;5075109;28;20193;-80
2020/12/01 14:56:01;;;;;;;41.03;37.30;;;;;;;;;;5057372;28;20199;-80
2020/12/01 14:58:39;;;;;;;41.75;37.78;;;;;;;;;;5075147;28;20237;-79
2020/12/01 15:01:12;;;;;;;39.10;35.70;;;;;;;;;;5068442;28;20641;-80
2020/12/01 15:03:54;;;;;;;41.55;37.25;;;;;;;;;;5075358;28;20206;-80
2020/12/01 15:06:37;;;;;;;40.10;36.47;;;;;;;;;;5075644;28;20199;-85
2020/12/01 15:09:13;;;;;;;40.78;36.90;;;;;;;;;;5068843;28;20192;-80